createdAt,value
2022-11-26T00:00:46.627Z,4.6
2022-11-26T00:07:06.460Z,4.6
2022-11-26T00:13:29.607Z,3.6
2022-11-26T00:19:49.642Z,3.6
2022-11-26T00:26:12.578Z,1.7
2022-11-26T00:32:32.609Z,1.7
2022-11-26T00:38:55.604Z,3.7
2022-11-26T00:45:15.564Z,3.7
2022-11-26T00:51:38.544Z,3.4
2022-11-26T00:57:58.584Z,3.4
2022-11-26T01:04:21.622Z,3.7
2022-11-26T01:10:41.536Z,3.7
2022-11-26T01:17:04.748Z,4.1
2022-11-26T01:23:24.603Z,4.1
2022-11-26T01:29:47.504Z,4.6
2022-11-26T01:36:07.538Z,4.6
2022-11-26T01:42:30.550Z,4.1
2022-11-26T01:48:50.559Z,4.1
2022-11-26T01:55:13.598Z,2.6
2022-11-26T02:01:33.678Z,2.6
2022-11-26T02:07:56.600Z,5.3
2022-11-26T02:14:16.625Z,5.3
2022-11-26T02:20:39.529Z,3.2
2022-11-26T02:26:59.727Z,3.2
2022-11-26T02:33:22.627Z,3.5
2022-11-26T02:39:42.685Z,3.5
2022-11-26T02:46:05.641Z,1.6
2022-11-26T02:52:25.678Z,1.6
2022-11-26T02:58:48.638Z,3.1
2022-11-26T03:05:08.624Z,3.1
2022-11-26T03:11:31.600Z,1.9
2022-11-26T03:17:51.667Z,1.9
2022-11-26T03:24:14.559Z,2.3
2022-11-26T03:30:34.609Z,2.3
2022-11-26T03:36:57.580Z,5.6
2022-11-26T03:43:17.537Z,5.6
2022-11-26T03:49:40.687Z,1.7
2022-11-26T03:56:00.578Z,1.7
2022-11-26T04:02:23.586Z,3.3
2022-11-26T04:25:29.308Z,1.7
2022-11-26T04:31:49.528Z,1.7
2022-11-26T04:38:12.664Z,1.4
2022-11-26T04:44:32.596Z,1.4
2022-11-26T04:50:55.518Z,2.8
2022-11-26T04:57:15.677Z,2.8
2022-11-26T05:03:38.569Z,2.5
2022-11-26T05:09:58.542Z,2.5
2022-11-26T05:16:21.616Z,2.7
2022-11-26T05:22:41.502Z,2.7
2022-11-26T05:29:04.574Z,1.5
2022-11-26T05:35:24.590Z,1.5
2022-11-26T05:41:47.717Z,4
2022-11-26T05:48:07.593Z,4
2022-11-26T05:54:30.569Z,3
2022-11-26T06:00:50.701Z,3
2022-11-26T06:07:13.545Z,2.1
2022-11-26T06:13:33.669Z,2.1
2022-11-26T06:19:56.617Z,4.4
2022-11-26T06:26:16.599Z,4.4
2022-11-26T06:32:39.609Z,2.5
2022-11-26T06:38:59.495Z,2.5
2022-11-26T06:45:22.524Z,4.1
2022-11-26T06:51:42.668Z,4.1
2022-11-26T06:58:05.647Z,2.6
2022-11-26T07:04:25.646Z,2.6
2022-11-26T07:10:49.282Z,1
2022-11-26T07:17:08.692Z,1
2022-11-26T07:23:31.610Z,1.9
2022-11-26T07:29:51.647Z,1.9
2022-11-26T07:36:14.643Z,2
2022-11-26T07:42:34.540Z,2
2022-11-26T07:48:57.643Z,2.1
2022-11-26T07:55:17.591Z,2.1
2022-11-26T08:01:40.622Z,3.2
2022-11-26T08:08:00.750Z,3.2
2022-11-26T08:14:23.646Z,4.3
2022-11-26T08:20:43.628Z,4.3
2022-11-26T08:27:06.689Z,3
2022-11-26T08:33:26.548Z,3
2022-11-26T08:39:49.551Z,2.7
2022-11-26T08:46:09.500Z,2.7
2022-11-26T08:52:32.619Z,4.9
2022-11-26T08:58:52.712Z,4.9
2022-11-26T09:05:15.555Z,3
2022-11-26T09:11:35.655Z,3
2022-11-26T09:35:16.507Z,6.1
2022-11-26T09:41:39.488Z,6.1
2022-11-26T09:47:59.683Z,6.1
2022-11-26T09:54:22.602Z,2.5
2022-11-26T10:00:42.601Z,2.5
2022-11-26T10:07:05.589Z,2.8
2022-11-26T10:13:25.566Z,2.8
2022-11-26T10:19:48.597Z,3.3
2022-11-26T10:26:08.553Z,3.3
2022-11-26T10:32:31.618Z,3.1
2022-11-26T10:38:51.608Z,3.1
2022-11-26T10:45:14.581Z,1.4
2022-11-26T10:51:34.671Z,1.4
2022-11-26T10:57:57.534Z,2.5
2022-11-26T11:04:17.569Z,2.5
2022-11-26T11:10:40.592Z,1.7
2022-11-26T11:17:00.565Z,1.7
2022-11-26T11:23:34.990Z,3.7
2022-11-26T11:29:43.591Z,3.7
2022-11-26T11:36:06.663Z,3
2022-11-26T11:42:26.622Z,3
2022-11-26T11:48:49.538Z,3.1
2022-11-26T11:55:09.567Z,3.1
2022-11-26T12:01:32.587Z,2.5
2022-11-26T12:07:52.629Z,2.5
2022-11-26T12:14:15.535Z,1.8
2022-11-26T12:20:35.600Z,1.8
2022-11-26T12:26:58.556Z,2.2
2022-11-26T12:33:18.499Z,2.2
2022-11-26T12:39:41.584Z,3
2022-11-26T12:46:01.579Z,3
2022-11-26T12:52:24.647Z,4.1
2022-11-26T12:58:44.509Z,4.1
2022-11-26T13:05:07.573Z,2.3
2022-11-26T13:11:27.545Z,2.3
2022-11-26T13:17:50.494Z,3.3
2022-11-26T13:24:13.559Z,3.3
2022-11-26T13:30:33.540Z,2.5
2022-11-26T13:36:53.489Z,2.5
2022-11-26T13:43:16.556Z,2.5
2022-11-26T13:49:36.504Z,2.5
2022-11-26T13:55:59.519Z,3
2022-11-26T14:02:19.639Z,3
2022-11-26T14:08:42.560Z,1.6
2022-11-26T14:15:02.619Z,1.6
2022-11-26T14:21:25.588Z,6.3
2022-11-26T14:27:45.619Z,6.3
2022-11-26T14:34:08.571Z,2.8
2022-11-26T14:50:51.222Z,1.4
2022-11-26T14:57:14.288Z,4.4
2022-11-26T15:03:34.548Z,4.4
2022-11-26T15:09:57.543Z,4.4
2022-11-26T15:16:17.610Z,4.4
2022-11-26T15:22:40.609Z,2
2022-11-26T15:29:00.497Z,2
2022-11-26T15:35:23.832Z,2.7
2022-11-26T15:41:43.555Z,2.7
2022-11-26T15:48:07.410Z,1.4
2022-11-26T15:54:34.096Z,1.4
2022-11-26T16:00:49.542Z,2.8
2022-11-26T16:07:09.618Z,2.8
2022-11-26T16:13:32.503Z,1.2
2022-11-26T16:19:52.565Z,1.2
2022-11-26T16:26:15.894Z,1.4
2022-11-26T16:32:35.557Z,1.4
2022-11-26T16:38:58.840Z,1.8
2022-11-26T16:45:18.597Z,1.8
2022-11-26T16:51:41.546Z,6.5
2022-11-26T16:58:01.517Z,6.5
2022-11-26T17:04:24.566Z,2
2022-11-26T17:10:44.612Z,2
2022-11-26T17:17:07.521Z,2.8
2022-11-26T17:23:27.568Z,2.8
2022-11-26T17:29:50.630Z,2.8
2022-11-26T17:36:10.478Z,2.8
2022-11-26T17:42:36.762Z,1.5
2022-11-26T17:48:58.373Z,1.5
2022-11-26T17:55:16.524Z,2.2
2022-11-26T18:01:36.660Z,2.2
2022-11-26T18:07:59.594Z,5
2022-11-26T18:14:19.565Z,5
2022-11-26T18:20:42.691Z,4
2022-11-26T18:27:02.553Z,4
2022-11-26T18:33:25.659Z,3.2
2022-11-26T18:39:45.578Z,3.2
2022-11-26T18:46:08.621Z,5.7
2022-11-26T18:52:28.468Z,5.7
2022-11-26T18:58:51.554Z,3.1
2022-11-26T19:05:11.635Z,3.1
2022-11-26T19:11:34.592Z,4.9
2022-11-26T19:17:54.583Z,4.9
2022-11-26T19:24:17.543Z,3.9
2022-11-26T19:30:37.631Z,3.9
2022-11-26T19:37:00.651Z,3.5
2022-11-26T19:59:30.937Z,4
2022-11-26T20:05:50.496Z,4
2022-11-26T20:12:13.508Z,4.4
2022-11-26T20:18:33.745Z,4.4
2022-11-26T20:24:56.573Z,5
2022-11-26T20:31:20.655Z,5
2022-11-26T20:37:39.541Z,3.8
2022-11-26T20:43:59.907Z,3.8
2022-11-26T20:50:22.626Z,6.8
2022-11-26T20:56:42.630Z,6.8
2022-11-26T21:03:05.660Z,4.6
2022-11-26T21:09:25.556Z,4.6
2022-11-26T21:15:48.558Z,3.3
2022-11-26T21:22:08.630Z,3.3
2022-11-26T21:28:31.565Z,3.4
2022-11-26T21:34:51.677Z,3.4
2022-11-26T21:41:14.563Z,3.7
2022-11-26T21:47:34.573Z,3.7
2022-11-26T21:53:57.639Z,2.4
2022-11-26T22:00:17.548Z,2.4
2022-11-26T22:06:40.482Z,5.4
2022-11-26T22:13:00.550Z,5.4
2022-11-26T22:19:23.647Z,7.2
2022-11-26T22:25:43.534Z,7.2
2022-11-26T22:32:06.914Z,5.3
2022-11-26T22:38:26.587Z,5.3
2022-11-26T22:44:49.564Z,4
2022-11-26T22:51:09.654Z,4
2022-11-26T22:57:32.632Z,3.5
2022-11-26T23:21:46.510Z,7
2022-11-26T23:28:06.503Z,7
2022-11-26T23:34:29.508Z,7
2022-11-26T23:40:49.637Z,7
2022-11-26T23:47:12.567Z,4
2022-11-26T23:53:32.610Z,4
2022-11-26T23:59:55.615Z,2
